createdAt,value
2017-02-27T00:01:03.597Z,0
2017-02-27T00:02:13.163Z,0
2017-02-27T00:03:22.364Z,0
2017-02-27T00:04:32.286Z,0
2017-02-27T00:05:41.059Z,0
2017-02-27T00:06:51.416Z,0
2017-02-27T00:08:00.211Z,0
2017-02-27T00:09:09.402Z,0
2017-02-27T00:10:18.914Z,0
2017-02-27T00:11:28.846Z,0
2017-02-27T00:12:38.030Z,0
2017-02-27T00:13:47.642Z,0
2017-02-27T00:14:57.628Z,0
2017-02-27T00:16:07.591Z,0
2017-02-27T00:17:17.569Z,0
2017-02-27T00:18:27.515Z,0
2017-02-27T00:19:37.492Z,0
2017-02-27T00:20:47.833Z,0
2017-02-27T00:21:57.408Z,0
2017-02-27T00:23:06.914Z,0
2017-02-27T00:24:16.094Z,0
2017-02-27T00:25:25.695Z,0
2017-02-27T00:26:35.250Z,0
2017-02-27T00:27:44.520Z,0
2017-02-27T00:28:54.079Z,0
2017-02-27T00:30:03.704Z,0
2017-02-27T00:31:13.677Z,0
2017-02-27T00:32:22.491Z,0
2017-02-27T00:33:32.452Z,0
2017-02-27T00:34:42.351Z,0
2017-02-27T00:35:51.103Z,0
2017-02-27T00:37:01.031Z,0
2017-02-27T00:38:10.988Z,0
2017-02-27T00:39:20.572Z,0
2017-02-27T00:40:30.156Z,0
2017-02-27T00:41:39.722Z,0
2017-02-27T00:42:49.737Z,0
2017-02-27T00:43:59.701Z,0
2017-02-27T00:45:08.940Z,0
2017-02-27T00:46:18.551Z,0
2017-02-27T00:47:28.511Z,0
2017-02-27T00:48:38.386Z,0
2017-02-27T00:49:47.554Z,0
2017-02-27T00:50:56.721Z,0
2017-02-27T00:52:06.682Z,0
2017-02-27T00:53:15.851Z,0
2017-02-27T00:54:25.853Z,0
2017-02-27T00:55:35.420Z,0
2017-02-27T00:56:45.321Z,0
2017-02-27T00:57:54.880Z,0
2017-02-27T00:59:04.059Z,0
2017-02-27T01:00:14.017Z,0
2017-02-27T01:01:23.579Z,0
2017-02-27T01:02:33.098Z,0
2017-02-27T01:03:43.092Z,0
2017-02-27T01:04:53.026Z,0
2017-02-27T01:06:01.816Z,0
2017-02-27T01:07:11.417Z,0
2017-02-27T01:08:21.360Z,0
2017-02-27T01:09:31.312Z,0
2017-02-27T01:10:40.886Z,0
2017-02-27T01:11:50.449Z,0
2017-02-27T01:12:59.248Z,0
2017-02-27T01:14:08.823Z,0
2017-02-27T01:15:18.796Z,0
2017-02-27T01:16:29.138Z,0
2017-02-27T01:17:39.492Z,0
2017-02-27T01:18:48.287Z,0
2017-02-27T01:19:57.810Z,0
2017-02-27T01:21:07.375Z,0
2017-02-27T01:22:17.507Z,0
2017-02-27T01:23:27.460Z,0
2017-02-27T01:24:36.665Z,0
2017-02-27T01:25:47.024Z,0
2017-02-27T01:26:56.222Z,0
2017-02-27T01:28:06.572Z,0
2017-02-27T01:29:16.156Z,0
2017-02-27T01:30:25.730Z,0
2017-02-27T01:31:35.336Z,0
2017-02-27T01:32:44.898Z,0
2017-02-27T01:33:54.494Z,0
2017-02-27T01:46:38.761Z,0
2017-02-27T01:52:43.908Z,0
2017-02-27T01:53:53.128Z,0
2017-02-27T01:55:02.260Z,0
2017-02-27T01:56:11.444Z,0
2017-02-27T01:57:21.344Z,0
2017-02-27T01:58:30.527Z,0
2017-02-27T01:59:40.446Z,0
2017-02-27T02:00:49.249Z,0
2017-02-27T02:01:58.439Z,0
2017-02-27T02:03:08.412Z,0
2017-02-27T02:04:17.602Z,0
2017-02-27T02:05:27.568Z,0
2017-02-27T02:06:37.529Z,0
2017-02-27T02:07:47.119Z,0
2017-02-27T02:08:56.324Z,0
2017-02-27T02:10:05.499Z,0
2017-02-27T02:11:15.082Z,0
2017-02-27T02:12:25.048Z,0
2017-02-27T02:13:34.580Z,0
2017-02-27T02:14:44.538Z,0
2017-02-27T02:15:54.472Z,0
2017-02-27T02:17:04.843Z,0
2017-02-27T02:18:14.018Z,0
2017-02-27T02:19:23.908Z,0
2017-02-27T02:20:33.462Z,0
2017-02-27T02:21:43.812Z,0
2017-02-27T02:22:53.400Z,0
2017-02-27T02:24:03.382Z,0
2017-02-27T02:25:13.741Z,0
2017-02-27T02:26:23.728Z,0
2017-02-27T02:27:33.673Z,0
2017-02-27T02:28:43.290Z,0
2017-02-27T02:29:52.015Z,0
2017-02-27T02:31:01.276Z,0
2017-02-27T02:32:11.607Z,0
2017-02-27T02:33:21.593Z,0
2017-02-27T02:34:31.569Z,0
2017-02-27T02:35:41.545Z,0
2017-02-27T02:36:51.875Z,0
2017-02-27T02:38:01.475Z,0
2017-02-27T02:39:11.823Z,0
2017-02-27T02:40:21.788Z,0
2017-02-27T02:41:30.981Z,0
2017-02-27T02:42:41.141Z,0
2017-02-27T02:43:50.291Z,0
2017-02-27T02:44:59.854Z,0
2017-02-27T02:46:09.820Z,0
2017-02-27T02:47:19.768Z,0
2017-02-27T02:48:29.326Z,0
2017-02-27T02:49:39.288Z,0
2017-02-27T02:50:49.263Z,0
2017-02-27T02:51:58.454Z,0
2017-02-27T02:53:07.990Z,0
2017-02-27T02:54:17.130Z,0
2017-02-27T02:55:26.658Z,0
2017-02-27T02:56:36.628Z,0
2017-02-27T02:57:46.212Z,0
2017-02-27T02:58:55.002Z,0
2017-02-27T03:00:04.607Z,0
2017-02-27T03:01:14.971Z,0
2017-02-27T03:02:24.969Z,0
2017-02-27T03:03:34.529Z,0
2017-02-27T03:04:43.367Z,0
2017-02-27T03:05:52.484Z,0
2017-02-27T03:07:02.877Z,0
2017-02-27T03:08:12.448Z,0
2017-02-27T03:09:21.985Z,0
2017-02-27T03:10:31.542Z,0
2017-02-27T03:11:41.104Z,0
2017-02-27T03:12:50.698Z,0
2017-02-27T03:14:00.266Z,0
2017-02-27T03:15:11.001Z,0
2017-02-27T03:16:20.580Z,0
2017-02-27T03:17:30.537Z,0
2017-02-27T03:18:40.153Z,0
2017-02-27T03:19:48.964Z,0
2017-02-27T03:20:59.312Z,0
2017-02-27T03:22:08.899Z,0
2017-02-27T03:23:18.075Z,0
2017-02-27T03:24:27.650Z,0
2017-02-27T03:25:37.596Z,0
2017-02-27T03:26:47.165Z,0
2017-02-27T03:27:55.965Z,0
2017-02-27T03:29:05.748Z,0
2017-02-27T03:30:15.695Z,0
2017-02-27T03:31:25.253Z,0
2017-02-27T03:32:35.184Z,0
2017-02-27T03:33:45.083Z,0
2017-02-27T03:34:54.260Z,0
2017-02-27T03:36:04.217Z,0
2017-02-27T03:37:13.797Z,0
2017-02-27T03:38:22.990Z,0
2017-02-27T03:39:32.972Z,0
2017-02-27T03:40:41.944Z,0
2017-02-27T03:41:51.520Z,0
2017-02-27T03:43:01.476Z,0
2017-02-27T03:44:11.429Z,0
2017-02-27T03:45:21.803Z,0
2017-02-27T03:46:31.379Z,0
2017-02-27T03:47:41.363Z,0
2017-02-27T03:48:50.556Z,0
2017-02-27T03:49:59.753Z,0
2017-02-27T03:51:10.059Z,0
2017-02-27T03:52:19.252Z,0
2017-02-27T03:53:29.422Z,0
2017-02-27T03:54:39.983Z,0
2017-02-27T03:55:49.565Z,0
2017-02-27T03:56:58.712Z,0
2017-02-27T03:58:08.664Z,0
2017-02-27T03:59:19.022Z,0
2017-02-27T04:00:28.597Z,0
2017-02-27T04:01:38.161Z,0
2017-02-27T04:02:47.697Z,0
2017-02-27T04:03:57.658Z,0
2017-02-27T04:05:07.226Z,0
2017-02-27T04:06:17.187Z,0
2017-02-27T04:07:26.772Z,0
2017-02-27T04:08:36.731Z,0
2017-02-27T04:09:46.321Z,0
2017-02-27T04:10:56.093Z,0
2017-02-27T04:12:06.459Z,0
2017-02-27T04:13:15.629Z,0
2017-02-27T04:14:24.819Z,0
2017-02-27T04:15:35.101Z,0
2017-02-27T04:16:44.285Z,0
2017-02-27T04:17:54.627Z,0
2017-02-27T04:19:04.895Z,0
2017-02-27T04:20:14.829Z,0
2017-02-27T04:21:24.009Z,0
2017-02-27T04:22:33.587Z,0
2017-02-27T04:23:43.978Z,0
2017-02-27T04:24:53.538Z,0
2017-02-27T04:26:02.730Z,0
2017-02-27T04:27:12.347Z,0
2017-02-27T04:28:21.942Z,0
2017-02-27T04:29:31.461Z,0
2017-02-27T04:30:40.632Z,0
2017-02-27T04:31:50.606Z,0
2017-02-27T04:32:59.809Z,0
2017-02-27T04:34:08.992Z,0
2017-02-27T04:35:18.196Z,0
2017-02-27T04:36:28.133Z,0
2017-02-27T04:37:38.087Z,0
2017-02-27T04:38:47.644Z,0
2017-02-27T04:39:56.851Z,0
2017-02-27T04:41:06.056Z,0
2017-02-27T04:42:16.729Z,0
2017-02-27T04:43:26.279Z,0
2017-02-27T04:44:35.459Z,0
2017-02-27T04:45:44.662Z,0
2017-02-27T04:46:53.857Z,0
2017-02-27T04:48:03.439Z,0
2017-02-27T04:49:13.008Z,0
2017-02-27T04:50:22.979Z,0
2017-02-27T04:51:32.946Z,0
2017-02-27T04:52:42.508Z,0
2017-02-27T04:53:51.698Z,0
2017-02-27T04:55:01.597Z,0
2017-02-27T04:56:10.765Z,0
2017-02-27T04:57:20.315Z,0
2017-02-27T04:58:29.504Z,0
2017-02-27T04:59:38.665Z,0
2017-02-27T05:00:48.631Z,0
2017-02-27T05:01:57.852Z,0
2017-02-27T05:03:07.417Z,0
2017-02-27T05:04:16.591Z,0
2017-02-27T05:05:26.953Z,0
2017-02-27T05:06:36.089Z,0
2017-02-27T05:07:45.651Z,0
2017-02-27T05:08:54.832Z,0
2017-02-27T05:10:04.730Z,0
2017-02-27T05:11:14.530Z,0
2017-02-27T05:12:24.838Z,0
2017-02-27T05:13:34.400Z,0
2017-02-27T05:14:43.963Z,0
2017-02-27T05:15:53.508Z,0
2017-02-27T05:17:03.482Z,0
2017-02-27T05:18:13.041Z,0
2017-02-27T05:19:23.011Z,0
2017-02-27T05:20:32.955Z,0
2017-02-27T05:21:42.531Z,0
2017-02-27T05:22:52.507Z,0
2017-02-27T05:24:02.024Z,0
2017-02-27T05:25:11.207Z,0
2017-02-27T05:26:20.780Z,0
2017-02-27T05:27:30.367Z,0
2017-02-27T05:28:39.565Z,0
2017-02-27T05:29:49.917Z,0
2017-02-27T05:30:59.898Z,0
2017-02-27T05:32:09.433Z,0
2017-02-27T05:33:18.988Z,0
2017-02-27T05:34:28.202Z,0
2017-02-27T05:35:37.388Z,0
2017-02-27T05:36:46.983Z,0
2017-02-27T05:37:57.262Z,0
2017-02-27T05:39:07.212Z,0
2017-02-27T05:40:16.401Z,0
2017-02-27T05:41:25.541Z,0
2017-02-27T05:42:35.118Z,0
2017-02-27T05:43:45.461Z,0
2017-02-27T05:44:55.026Z,0
2017-02-27T05:46:04.988Z,0
2017-02-27T05:47:13.786Z,0
2017-02-27T05:48:23.370Z,0
2017-02-27T05:49:32.546Z,0
2017-02-27T05:50:41.342Z,0
2017-02-27T05:51:50.585Z,0
2017-02-27T05:52:59.768Z,0
2017-02-27T05:54:09.725Z,0
2017-02-27T05:55:19.275Z,0
2017-02-27T05:56:28.863Z,0
2017-02-27T05:57:38.837Z,0
2017-02-27T05:58:48.796Z,0
2017-02-27T05:59:58.715Z,0
2017-02-27T06:01:08.277Z,0
2017-02-27T06:02:17.848Z,0
2017-02-27T06:03:27.025Z,0
2017-02-27T06:04:36.155Z,4
2017-02-27T06:05:46.096Z,0
2017-02-27T06:06:56.419Z,0
2017-02-27T06:08:05.613Z,0
2017-02-27T06:09:15.150Z,0
2017-02-27T06:10:24.314Z,4
2017-02-27T06:11:33.826Z,4
2017-02-27T06:12:43.392Z,4
2017-02-27T06:13:53.349Z,4
2017-02-27T06:15:03.304Z,4
2017-02-27T06:16:12.842Z,8
2017-02-27T06:17:22.784Z,4
2017-02-27T06:18:32.295Z,4
2017-02-27T06:19:42.260Z,8
2017-02-27T06:20:51.854Z,8
2017-02-27T06:22:01.829Z,8
2017-02-27T06:23:11.048Z,12
2017-02-27T06:24:20.587Z,12
2017-02-27T06:25:30.143Z,16
2017-02-27T06:26:40.109Z,16
2017-02-27T06:27:48.871Z,12
2017-02-27T06:28:58.804Z,16
2017-02-27T06:30:09.142Z,16
2017-02-27T06:31:18.701Z,24
2017-02-27T06:32:28.647Z,16
2017-02-27T06:33:37.452Z,16
2017-02-27T06:34:46.584Z,16
2017-02-27T06:35:55.709Z,24
2017-02-27T06:37:04.839Z,20
2017-02-27T06:38:15.580Z,20
2017-02-27T06:39:24.776Z,24
2017-02-27T06:40:34.369Z,32
2017-02-27T06:41:43.890Z,36
2017-02-27T06:42:53.468Z,48
2017-02-27T06:44:03.425Z,36
2017-02-27T06:45:13.371Z,44
2017-02-27T06:46:22.567Z,52
2017-02-27T06:47:31.692Z,52
2017-02-27T06:48:40.846Z,64
2017-02-27T06:49:50.440Z,60
2017-02-27T06:51:00.402Z,44
2017-02-27T06:52:09.607Z,40
2017-02-27T06:53:18.842Z,44
2017-02-27T06:54:28.032Z,36
2017-02-27T06:55:37.640Z,40
2017-02-27T06:56:47.587Z,36
2017-02-27T06:57:57.169Z,60
2017-02-27T06:59:07.082Z,60
2017-02-27T07:00:16.592Z,60
2017-02-27T07:01:26.167Z,52
2017-02-27T07:02:36.139Z,68
2017-02-27T07:03:46.084Z,72
2017-02-27T07:04:55.276Z,84
2017-02-27T07:06:04.469Z,80
2017-02-27T07:07:14.415Z,72
2017-02-27T07:08:23.583Z,72
2017-02-27T07:09:33.543Z,80
2017-02-27T07:10:43.137Z,72
2017-02-27T07:11:53.469Z,64
2017-02-27T07:13:02.998Z,84
2017-02-27T07:14:12.590Z,80
2017-02-27T07:15:22.530Z,132
2017-02-27T07:16:31.708Z,112
2017-02-27T07:17:41.888Z,104
2017-02-27T07:18:51.842Z,100
2017-02-27T07:20:01.354Z,104
2017-02-27T07:21:10.841Z,116
2017-02-27T07:22:20.410Z,116
2017-02-27T07:23:30.362Z,168
2017-02-27T07:24:40.712Z,148
2017-02-27T07:25:49.898Z,112
2017-02-27T07:26:59.090Z,104
2017-02-27T07:28:08.270Z,136
2017-02-27T07:29:17.838Z,136
2017-02-27T07:30:26.583Z,144
2017-02-27T07:31:36.141Z,160
2017-02-27T07:32:45.703Z,140
2017-02-27T07:33:55.231Z,184
2017-02-27T07:35:04.797Z,116
2017-02-27T07:36:14.768Z,132
2017-02-27T07:37:24.367Z,160
2017-02-27T07:38:34.344Z,172
2017-02-27T07:39:43.079Z,148
2017-02-27T07:40:52.662Z,144
2017-02-27T07:42:02.618Z,160
2017-02-27T07:43:11.818Z,144
2017-02-27T07:44:21.793Z,176
2017-02-27T07:45:30.907Z,156
2017-02-27T07:46:40.092Z,156
2017-02-27T07:47:50.052Z,152
2017-02-27T07:48:58.828Z,160
2017-02-27T07:50:08.791Z,184
2017-02-27T07:51:17.576Z,184
2017-02-27T07:52:27.154Z,176
2017-02-27T07:53:36.290Z,200
2017-02-27T07:54:45.022Z,216
2017-02-27T07:55:54.569Z,208
2017-02-27T07:57:03.739Z,212
2017-02-27T07:58:12.926Z,180
2017-02-27T07:59:21.676Z,196
2017-02-27T08:00:30.420Z,256
2017-02-27T08:01:39.923Z,204
2017-02-27T08:02:49.407Z,172
2017-02-27T08:03:59.343Z,212
2017-02-27T08:05:09.708Z,204
2017-02-27T08:06:18.875Z,200
2017-02-27T08:07:28.063Z,208
2017-02-27T08:08:38.013Z,240
2017-02-27T08:09:47.968Z,196
2017-02-27T08:10:57.478Z,208
2017-02-27T08:12:06.651Z,268
2017-02-27T08:13:16.613Z,340
2017-02-27T08:14:26.222Z,256
2017-02-27T08:15:35.046Z,200
2017-02-27T08:16:44.641Z,260
2017-02-27T08:17:54.212Z,224
2017-02-27T08:19:04.171Z,276
2017-02-27T08:20:13.414Z,280
2017-02-27T08:21:22.217Z,388
2017-02-27T08:22:31.432Z,328
2017-02-27T08:23:40.999Z,324
2017-02-27T08:24:50.569Z,304
2017-02-27T08:26:00.912Z,300
2017-02-27T08:27:10.494Z,296
2017-02-27T08:28:20.077Z,308
2017-02-27T08:29:29.263Z,352
2017-02-27T08:30:38.448Z,332
2017-02-27T08:31:48.031Z,332
2017-02-27T08:32:57.988Z,376
2017-02-27T08:34:07.195Z,328
2017-02-27T08:35:17.166Z,296
2017-02-27T08:36:27.122Z,384
2017-02-27T08:37:37.074Z,312
2017-02-27T08:38:46.272Z,340
2017-02-27T08:39:55.090Z,268
2017-02-27T08:41:04.611Z,260
2017-02-27T08:42:14.167Z,300
2017-02-27T08:43:24.859Z,344
2017-02-27T08:44:34.817Z,304
2017-02-27T08:45:44.326Z,400
2017-02-27T08:46:53.912Z,356
2017-02-27T08:48:03.840Z,364
2017-02-27T08:49:13.786Z,392
2017-02-27T08:50:23.360Z,352
2017-02-27T08:51:32.580Z,312
2017-02-27T08:52:42.889Z,336
2017-02-27T08:53:52.605Z,312
2017-02-27T08:55:02.161Z,300
2017-02-27T08:56:10.954Z,356
2017-02-27T08:57:19.761Z,312
2017-02-27T08:58:29.280Z,344
2017-02-27T08:59:38.860Z,340
2017-02-27T09:00:48.820Z,364
2017-02-27T09:01:58.825Z,248
2017-02-27T09:03:08.774Z,336
2017-02-27T09:04:18.729Z,320
2017-02-27T09:05:28.259Z,404
2017-02-27T09:06:37.060Z,416
2017-02-27T09:07:46.591Z,372
2017-02-27T09:08:56.155Z,328
2017-02-27T09:10:06.144Z,256
2017-02-27T09:11:15.718Z,232
2017-02-27T09:12:25.675Z,344
2017-02-27T09:13:35.213Z,348
2017-02-27T09:14:45.165Z,352
2017-02-27T09:15:54.753Z,356
2017-02-27T09:17:04.348Z,320
2017-02-27T09:18:14.316Z,356
2017-02-27T09:19:24.288Z,352
2017-02-27T09:20:33.846Z,272
2017-02-27T09:21:43.827Z,260
2017-02-27T09:22:53.433Z,276
2017-02-27T09:24:03.017Z,312
2017-02-27T09:25:12.911Z,308
2017-02-27T09:26:23.242Z,272
2017-02-27T09:27:33.202Z,264
2017-02-27T09:28:42.390Z,372
2017-02-27T09:29:51.577Z,320
2017-02-27T09:31:01.097Z,276
2017-02-27T09:32:10.293Z,316
2017-02-27T09:33:20.659Z,244
2017-02-27T09:34:29.859Z,352
2017-02-27T09:35:39.386Z,448
2017-02-27T09:36:48.565Z,296
2017-02-27T09:37:57.761Z,284
2017-02-27T09:39:08.524Z,424
2017-02-27T09:40:18.880Z,364
2017-02-27T09:41:28.832Z,340
2017-02-27T09:42:37.978Z,388
2017-02-27T09:43:48.092Z,320
2017-02-27T09:44:58.062Z,376
2017-02-27T09:46:07.669Z,352
2017-02-27T09:47:18.023Z,360
2017-02-27T09:48:27.573Z,440
2017-02-27T09:49:37.163Z,372
2017-02-27T09:50:46.743Z,420
2017-02-27T09:51:56.684Z,328
2017-02-27T09:53:06.221Z,276
2017-02-27T09:54:15.793Z,260
2017-02-27T09:55:25.365Z,304
2017-02-27T09:56:34.582Z,488
2017-02-27T09:57:44.552Z,544
2017-02-27T09:58:54.147Z,512
2017-02-27T10:00:04.491Z,596
2017-02-27T10:01:14.789Z,572
2017-02-27T10:02:24.771Z,544
2017-02-27T10:03:34.726Z,624
2017-02-27T10:04:44.300Z,580
2017-02-27T10:05:54.669Z,656
2017-02-27T10:07:04.236Z,552
2017-02-27T10:08:13.433Z,532
2017-02-27T10:09:22.994Z,516
2017-02-27T10:10:32.572Z,508
2017-02-27T10:11:42.539Z,608
2017-02-27T10:12:52.135Z,536
2017-02-27T10:14:01.348Z,564
2017-02-27T10:15:11.695Z,516
2017-02-27T10:16:21.667Z,504
2017-02-27T10:17:31.257Z,676
2017-02-27T10:18:40.778Z,696
2017-02-27T10:19:50.441Z,792
2017-02-27T10:21:00.032Z,656
2017-02-27T10:22:09.588Z,652
2017-02-27T10:23:19.571Z,748
2017-02-27T10:24:29.545Z,684
2017-02-27T10:25:39.526Z,796
2017-02-27T10:26:49.115Z,1224
2017-02-27T10:27:58.297Z,784
2017-02-27T10:29:07.871Z,872
2017-02-27T10:30:18.204Z,1388
2017-02-27T10:31:27.412Z,1540
2017-02-27T10:32:36.978Z,844
2017-02-27T10:33:47.641Z,808
2017-02-27T10:34:57.807Z,600
2017-02-27T10:36:07.784Z,1212
2017-02-27T10:37:16.983Z,1600
2017-02-27T10:38:26.497Z,1568
2017-02-27T10:39:36.446Z,956
2017-02-27T10:40:46.030Z,1164
2017-02-27T10:41:55.598Z,956
2017-02-27T10:43:05.936Z,872
2017-02-27T10:44:15.864Z,1936
2017-02-27T10:45:25.846Z,1508
2017-02-27T10:46:34.983Z,1664
2017-02-27T10:47:44.914Z,1408
2017-02-27T10:48:54.878Z,1220
2017-02-27T10:50:05.264Z,996
2017-02-27T10:51:14.449Z,804
2017-02-27T10:52:23.969Z,1732
2017-02-27T10:53:33.511Z,884
2017-02-27T10:54:42.626Z,1084
2017-02-27T10:55:51.801Z,972
2017-02-27T10:57:01.761Z,824
2017-02-27T10:58:10.945Z,720
2017-02-27T10:59:20.544Z,1536
2017-02-27T11:00:30.122Z,776
2017-02-27T11:01:40.472Z,704
2017-02-27T11:02:50.829Z,900
2017-02-27T11:04:00.393Z,848
2017-02-27T11:05:10.401Z,644
2017-02-27T11:06:19.977Z,668
2017-02-27T11:07:29.983Z,816
2017-02-27T11:08:39.566Z,528
2017-02-27T11:09:49.155Z,660
2017-02-27T11:10:59.129Z,548
2017-02-27T11:12:09.098Z,552
2017-02-27T11:13:19.021Z,564
2017-02-27T11:14:28.578Z,748
2017-02-27T11:15:37.715Z,1260
2017-02-27T11:16:47.614Z,1048
2017-02-27T11:17:57.535Z,688
2017-02-27T11:19:07.489Z,1088
2017-02-27T11:20:17.058Z,752
2017-02-27T11:21:27.015Z,808
2017-02-27T11:22:36.618Z,944
2017-02-27T11:23:45.831Z,740
2017-02-27T11:24:55.035Z,748
2017-02-27T11:26:05.017Z,792
2017-02-27T11:27:13.835Z,732
2017-02-27T11:28:23.406Z,908
2017-02-27T11:29:32.931Z,1032
2017-02-27T11:30:42.098Z,904
2017-02-27T11:31:51.657Z,856
2017-02-27T11:33:01.618Z,844
2017-02-27T11:34:11.134Z,956
2017-02-27T11:35:20.308Z,660
2017-02-27T11:36:29.097Z,688
2017-02-27T11:37:38.621Z,876
2017-02-27T11:38:48.584Z,728
2017-02-27T11:39:57.778Z,704
2017-02-27T11:41:07.742Z,792
2017-02-27T11:42:16.549Z,796
2017-02-27T11:43:27.296Z,780
2017-02-27T11:44:36.045Z,792
2017-02-27T11:45:45.619Z,612
2017-02-27T11:46:55.215Z,680
2017-02-27T11:48:05.192Z,608
2017-02-27T11:49:15.517Z,652
2017-02-27T11:50:24.689Z,748
2017-02-27T11:51:34.268Z,572
2017-02-27T11:52:44.277Z,476
2017-02-27T11:53:54.614Z,580
2017-02-27T11:55:04.602Z,392
2017-02-27T11:56:14.964Z,536
2017-02-27T11:57:25.256Z,560
2017-02-27T11:58:34.441Z,660
2017-02-27T11:59:44.018Z,580
2017-02-27T12:00:53.533Z,692
2017-02-27T12:02:02.702Z,500
2017-02-27T12:03:12.268Z,664
2017-02-27T12:04:22.053Z,620
2017-02-27T12:05:31.205Z,568
2017-02-27T12:06:40.791Z,472
2017-02-27T12:07:49.984Z,572
2017-02-27T12:08:59.570Z,476
2017-02-27T12:10:09.334Z,496
2017-02-27T12:11:19.684Z,628
2017-02-27T12:12:29.662Z,720
2017-02-27T12:13:40.350Z,464
2017-02-27T12:14:50.702Z,536
2017-02-27T12:16:00.978Z,448
2017-02-27T12:17:10.919Z,588
2017-02-27T12:18:19.728Z,604
2017-02-27T12:19:29.693Z,692
2017-02-27T12:20:40.065Z,684
2017-02-27T12:21:48.864Z,496
2017-02-27T12:22:58.470Z,508
2017-02-27T12:24:07.225Z,632
2017-02-27T12:25:16.418Z,580
2017-02-27T12:26:26.013Z,480
2017-02-27T12:27:35.214Z,476
2017-02-27T12:28:45.557Z,648
2017-02-27T12:29:55.513Z,744
2017-02-27T12:31:05.086Z,556
2017-02-27T12:32:14.604Z,528
2017-02-27T12:33:24.171Z,760
2017-02-27T12:34:34.157Z,744
2017-02-27T12:35:44.119Z,508
2017-02-27T12:36:54.066Z,632
2017-02-27T12:38:04.410Z,572
2017-02-27T12:39:13.570Z,548
2017-02-27T12:40:23.180Z,576
2017-02-27T12:41:33.117Z,640
2017-02-27T12:42:43.859Z,412
2017-02-27T12:43:53.814Z,488
2017-02-27T12:45:04.140Z,556
2017-02-27T12:46:14.865Z,340
2017-02-27T12:47:24.826Z,388
2017-02-27T12:48:34.422Z,744
2017-02-27T12:49:44.804Z,456
2017-02-27T12:50:55.173Z,360
2017-02-27T12:52:05.138Z,356
2017-02-27T12:53:15.476Z,424
2017-02-27T12:54:24.687Z,368
2017-02-27T12:55:33.890Z,388
2017-02-27T12:56:43.456Z,576
2017-02-27T12:57:53.305Z,396
2017-02-27T12:59:04.037Z,424
2017-02-27T13:00:13.552Z,408
2017-02-27T13:01:23.487Z,372
2017-02-27T13:02:33.449Z,416
2017-02-27T13:03:42.637Z,488
2017-02-27T13:04:52.983Z,608
2017-02-27T13:06:02.523Z,644
2017-02-27T13:07:12.108Z,420
2017-02-27T13:08:21.231Z,444
2017-02-27T13:09:30.792Z,464
2017-02-27T13:10:40.437Z,472
2017-02-27T13:11:50.410Z,412
2017-02-27T13:13:00.358Z,368
2017-02-27T13:14:10.333Z,388
2017-02-27T13:15:19.547Z,472
2017-02-27T13:16:28.767Z,424
2017-02-27T13:17:38.948Z,424
2017-02-27T13:18:48.549Z,396
2017-02-27T13:19:57.747Z,316
2017-02-27T13:21:07.651Z,372
2017-02-27T13:22:17.982Z,464
2017-02-27T13:23:27.572Z,488
2017-02-27T13:24:37.513Z,616
2017-02-27T13:25:47.458Z,508
2017-02-27T13:26:56.601Z,512
2017-02-27T13:28:06.495Z,540
2017-02-27T13:29:16.824Z,616
2017-02-27T13:30:26.740Z,544
2017-02-27T13:31:36.684Z,488
2017-02-27T13:32:46.359Z,396
2017-02-27T13:33:55.985Z,336
2017-02-27T13:35:05.119Z,356
2017-02-27T13:36:15.076Z,360
2017-02-27T13:37:25.437Z,492
2017-02-27T13:38:35.739Z,676
2017-02-27T13:39:46.226Z,540
2017-02-27T13:40:55.803Z,444
2017-02-27T13:42:05.720Z,388
2017-02-27T13:43:15.292Z,368
2017-02-27T13:44:24.806Z,304
2017-02-27T13:45:33.974Z,352
2017-02-27T13:46:43.588Z,380
2017-02-27T13:47:53.190Z,268
2017-02-27T13:49:03.175Z,332
2017-02-27T13:50:13.073Z,324
2017-02-27T13:51:22.275Z,344
2017-02-27T13:52:31.477Z,320
2017-02-27T13:53:41.097Z,332
2017-02-27T13:54:50.726Z,584
2017-02-27T13:55:59.937Z,600
2017-02-27T13:57:10.101Z,560
2017-02-27T13:58:19.298Z,396
2017-02-27T13:59:28.872Z,500
2017-02-27T14:00:38.436Z,720
2017-02-27T14:01:48.434Z,584
2017-02-27T14:02:58.016Z,540
2017-02-27T14:04:07.992Z,412
2017-02-27T14:05:17.166Z,476
2017-02-27T14:06:26.360Z,552
2017-02-27T14:07:35.936Z,608
2017-02-27T14:08:45.137Z,628
2017-02-27T14:09:54.339Z,516
2017-02-27T14:11:03.127Z,484
2017-02-27T14:12:12.315Z,576
2017-02-27T14:13:21.878Z,500
2017-02-27T14:14:31.451Z,560
2017-02-27T14:15:41.050Z,496
2017-02-27T14:16:51.022Z,328
2017-02-27T14:18:00.545Z,452
2017-02-27T14:19:10.120Z,472
2017-02-27T14:20:19.696Z,508
2017-02-27T14:21:28.877Z,516
2017-02-27T14:22:39.237Z,568
2017-02-27T14:23:49.541Z,496
2017-02-27T14:24:59.485Z,600
2017-02-27T14:26:09.076Z,832
2017-02-27T14:27:18.276Z,848
2017-02-27T14:28:27.815Z,1396
2017-02-27T14:29:37.780Z,1084
2017-02-27T14:30:47.748Z,1004
2017-02-27T14:31:56.947Z,1400
2017-02-27T14:33:06.914Z,1352
2017-02-27T14:34:16.124Z,1032
2017-02-27T14:35:26.071Z,788
2017-02-27T14:36:35.212Z,756
2017-02-27T14:37:44.382Z,1004
2017-02-27T14:38:53.968Z,1148
2017-02-27T14:40:03.568Z,984
2017-02-27T14:41:13.133Z,768
2017-02-27T14:42:22.347Z,808
2017-02-27T14:43:31.916Z,772
2017-02-27T14:44:41.471Z,896
2017-02-27T14:45:50.664Z,808
2017-02-27T14:47:00.248Z,1116
2017-02-27T14:48:10.601Z,1048
2017-02-27T14:49:19.781Z,1036
2017-02-27T14:50:29.713Z,928
2017-02-27T14:51:39.268Z,1000
2017-02-27T14:52:49.177Z,816
2017-02-27T14:53:58.386Z,836
2017-02-27T14:55:07.958Z,932
2017-02-27T14:56:17.555Z,720
2017-02-27T14:57:27.942Z,900
2017-02-27T14:58:37.910Z,644
2017-02-27T14:59:47.815Z,624
2017-02-27T15:00:57.385Z,452
2017-02-27T15:02:07.338Z,424
2017-02-27T15:03:17.526Z,768
2017-02-27T15:04:27.124Z,796
2017-02-27T15:05:36.685Z,656
2017-02-27T15:06:45.867Z,508
2017-02-27T15:07:55.447Z,400
2017-02-27T15:09:05.074Z,296
2017-02-27T15:10:15.036Z,300
2017-02-27T15:11:24.608Z,284
2017-02-27T15:12:33.399Z,284
2017-02-27T15:13:43.359Z,272
2017-02-27T15:14:53.328Z,260
2017-02-27T15:16:03.508Z,284
2017-02-27T15:17:12.702Z,340
2017-02-27T15:18:22.316Z,376
2017-02-27T15:19:32.687Z,440
2017-02-27T15:20:42.642Z,360
2017-02-27T15:21:52.227Z,508
2017-02-27T15:23:02.232Z,628
2017-02-27T15:24:11.754Z,484
2017-02-27T15:25:21.704Z,468
2017-02-27T15:26:31.591Z,468
2017-02-27T15:27:41.158Z,320
2017-02-27T15:28:50.352Z,256
2017-02-27T15:29:59.107Z,220
2017-02-27T15:31:08.319Z,196
2017-02-27T15:32:18.219Z,200
2017-02-27T15:33:27.417Z,172
2017-02-27T15:34:37.008Z,212
2017-02-27T15:35:46.550Z,308
2017-02-27T15:36:55.762Z,324
2017-02-27T15:38:05.350Z,284
2017-02-27T15:39:15.668Z,272
2017-02-27T15:40:24.844Z,232
2017-02-27T15:41:34.433Z,176
2017-02-27T15:42:44.786Z,140
2017-02-27T15:43:54.711Z,108
2017-02-27T15:45:04.683Z,84
2017-02-27T15:46:14.686Z,76
2017-02-27T15:47:24.273Z,68
2017-02-27T15:48:33.843Z,68
2017-02-27T15:49:43.024Z,64
2017-02-27T15:50:53.371Z,64
2017-02-27T15:52:04.118Z,96
2017-02-27T15:53:13.692Z,136
2017-02-27T15:54:23.254Z,164
2017-02-27T15:55:32.442Z,184
2017-02-27T15:56:41.628Z,180
2017-02-27T15:57:51.199Z,172
2017-02-27T15:59:00.345Z,140
2017-02-27T16:00:09.910Z,128
2017-02-27T16:01:19.862Z,104
2017-02-27T16:02:29.436Z,84
2017-02-27T16:03:38.576Z,64
2017-02-27T16:04:47.751Z,56
2017-02-27T16:05:56.951Z,60
2017-02-27T16:07:06.142Z,56
2017-02-27T16:08:16.503Z,48
2017-02-27T16:09:25.680Z,56
2017-02-27T16:10:35.666Z,56
2017-02-27T16:11:46.036Z,64
2017-02-27T16:12:55.257Z,60
2017-02-27T16:14:05.230Z,60
2017-02-27T16:15:15.538Z,52
2017-02-27T16:16:24.714Z,44
2017-02-27T16:17:34.683Z,40
2017-02-27T16:18:44.661Z,36
2017-02-27T16:19:54.231Z,32
2017-02-27T16:21:03.428Z,32
2017-02-27T16:22:13.016Z,28
2017-02-27T16:23:22.966Z,28
2017-02-27T16:24:32.920Z,28
2017-02-27T16:25:42.497Z,28
2017-02-27T16:26:52.840Z,32
2017-02-27T16:28:02.402Z,28
2017-02-27T16:29:12.368Z,24
2017-02-27T16:30:21.915Z,24
2017-02-27T16:31:31.480Z,20
2017-02-27T16:32:40.666Z,16
2017-02-27T16:33:50.650Z,16
2017-02-27T16:35:00.465Z,12
2017-02-27T16:36:10.450Z,12
2017-02-27T16:37:19.975Z,16
2017-02-27T16:38:29.080Z,16
2017-02-27T16:39:39.014Z,12
2017-02-27T16:40:48.586Z,8
2017-02-27T16:41:58.188Z,12
2017-02-27T16:43:08.162Z,8